Time;durP1;ratioP1;P1;durP2;ratioP2;P2;SDS_P1;SDS_P2;PMS_P1;PMS_P2;Temp;Humidity;BMP_temperature;BMP_pressure;BME280_temperature;BME280_humidity;BME280_pressure;Samples;Min_cycle;Max_cycle;Signal;HPM_P1;HPM_P2
2023/06/11 00:01:40;;;;;;;6.20;5.60;;;;;;;24.35;26.86;101084.91;5036835;28;20135;-79
2023/06/11 00:04:08;;;;;;;;;;;;;;;24.03;27.28;101086.66;5034010;28;20049;-79
2023/06/11 00:06:36;;;;;;;6.35;5.40;;;;;;;24.25;26.78;101086.38;5033202;28;20443;-79
2023/06/11 00:09:05;;;;;;;6.47;5.32;;;;;;;24.29;26.82;101087.69;5036257;28;20498;-81
2023/06/11 00:11:34;;;;;;;5.82;5.30;;;;;;;24.25;26.88;101083.59;5051232;28;20136;-80
2023/06/11 00:14:02;;;;;;;5.70;5.10;;;;;;;24.22;26.58;101079.31;5036618;28;20494;-79
2023/06/11 00:16:32;;;;;;;6.00;5.15;;;;;;;24.22;27.01;101084.91;5030693;28;20092;-80
2023/06/11 00:19:02;;;;;;;5.63;5.03;;;;;;;24.17;27.08;101086.63;5030293;28;20551;-79
2023/06/11 00:21:31;;;;;;;6.55;5.50;;;;;;;24.18;27.15;101091.16;5031402;28;20049;-80
2023/06/11 00:24:00;;;;;;;5.78;5.18;;;;;;;24.15;26.77;101090.50;5035923;28;20464;-79
2023/06/11 00:26:29;;;;;;;6.55;5.30;;;;;;;24.15;27.22;101084.91;5029738;28;20148;-80
2023/06/11 00:28:57;;;;;;;6.20;5.03;;;;;;;24.12;27.16;101084.50;5036787;28;20041;-81
2023/06/11 00:31:25;;;;;;;5.72;5.13;;;;;;;24.09;27.28;101085.78;5052405;28;20136;-79
2023/06/11 00:33:53;;;;;;;5.80;5.20;;;;;;;24.08;27.18;101080.41;5035970;28;20124;-78
2023/06/11 00:36:21;;;;;;;6.60;5.55;;;;;;;24.04;27.30;101079.13;5035738;28;20079;-80
2023/06/11 00:38:51;;;;;;;6.35;5.57;;;;;;;24.02;27.30;101079.34;5031288;28;20042;-81
2023/06/11 00:41:20;;;;;;;6.30;5.10;;;;;;;24.00;27.27;101077.84;5035632;28;20412;-79
2023/06/11 00:43:52;;;;;;;6.38;5.70;;;;;;;23.98;27.50;101078.09;5034921;28;20044;-79
2023/06/11 00:46:21;;;;;;;6.03;5.43;;;;;;;23.91;27.50;101077.22;5035256;28;20044;-79
2023/06/11 00:48:51;;;;;;;7.20;5.57;;;;;;;23.91;27.27;101074.41;5034157;28;20451;-79
2023/06/11 00:51:22;;;;;;;7.10;5.40;;;;;;;23.91;27.66;101081.97;5052815;28;20060;-79
2023/06/11 00:53:51;;;;;;;7.85;5.60;;;;;;;23.85;27.34;101080.88;5036269;28;20063;-79
2023/06/11 00:56:19;;;;;;;6.47;5.13;;;;;;;23.84;27.53;101075.50;5034804;28;20044;-80
2023/06/11 00:58:49;;;;;;;7.20;5.25;;;;;;;23.82;27.41;101077.66;5034036;28;20496;-80
2023/06/11 01:01:29;;;;;;;7.07;5.70;;;;;;;23.81;27.60;101082.41;5034011;28;20049;-80
2023/06/11 01:04:00;;;;;;;6.25;5.40;;;;;;;23.77;27.80;101072.72;5037364;28;20045;-81
2023/06/11 01:06:33;;;;;;;6.45;5.47;;;;;;;23.75;27.76;101072.03;5036346;28;20521;-79
2023/06/11 01:09:04;;;;;;;6.50;5.32;;;;;;;23.72;27.48;101078.94;5045028;28;20112;-79
2023/06/11 01:11:34;;;;;;;6.22;5.63;;;;;;;23.69;27.55;101070.09;5048670;28;20053;-79
2023/06/11 01:14:07;;;;;;;;;;;;;;;23.38;27.94;101080.00;5052821;28;20119;-80
2023/06/11 01:16:52;;;;;;;6.32;4.95;;;;;;;23.64;27.69;101081.09;5033821;28;20399;-79
2023/06/11 01:19:43;;;;;;;5.72;4.88;;;;;;;23.66;27.90;101084.53;5027882;28;20044;-80
2023/06/11 01:22:16;;;;;;;5.63;4.85;;;;;;;23.63;27.87;101079.38;5051839;28;20068;-82
2023/06/11 01:24:59;;;;;;;5.28;4.70;;;;;;;23.63;27.50;101077.44;5034531;28;20043;-80
2023/06/11 01:27:42;;;;;;;6.07;5.18;;;;;;;23.61;27.80;101081.50;5037521;28;20041;-82
2023/06/11 01:30:17;;;;;;;6.05;4.93;;;;;;;23.58;27.78;101073.56;5049420;28;20131;-80
2023/06/11 01:32:52;;;;;;;6.10;5.40;;;;;;;23.55;27.81;101074.00;5030863;28;20072;-80
2023/06/11 01:35:23;;;;;;;6.65;5.57;;;;;;;23.50;27.77;101077.41;5051326;28;20045;-80
2023/06/11 01:37:56;;;;;;;6.20;5.15;;;;;;;23.49;27.55;101072.06;5038916;28;20116;-81
2023/06/11 01:40:31;;;;;;;6.05;5.15;;;;;;;23.46;27.63;101066.91;5036754;28;20087;-79
2023/06/11 01:43:00;;;;;;;5.35;4.85;;;;;;;23.44;27.74;101077.41;5056296;28;20037;-78
2023/06/11 01:45:32;;;;;;;5.40;4.90;;;;;;;23.45;27.76;101081.94;5033860;28;20099;-79
2023/06/11 01:48:00;;;;;;;;;;;;;;;23.11;28.53;101081.00;5039975;28;20107;-79
2023/06/11 01:50:30;;;;;;;5.53;4.93;;;;;;;23.33;27.99;101079.75;5030271;28;20041;-79
2023/06/11 01:52:58;;;;;;;5.88;5.25;;;;;;;23.36;27.90;101084.06;5035718;28;20052;-79
2023/06/11 01:55:28;;;;;;;5.90;5.30;;;;;;;23.33;27.89;101081.72;5032382;28;20043;-79
2023/06/11 01:57:56;;;;;;;6.68;5.63;;;;;;;23.32;27.84;101078.06;5065236;23;20045;-82
2023/06/11 02:00:24;;;;;;;5.97;5.35;;;;;;;23.29;27.92;101084.06;5041777;28;20053;-83
2023/06/11 02:02:54;;;;;;;5.80;5.20;;;;;;;23.30;27.97;101088.59;5062575;28;20062;-82
2023/06/11 02:05:22;;;;;;;6.40;5.32;;;;;;;23.26;27.90;101084.47;5041941;28;20048;-83
2023/06/11 02:07:50;;;;;;;6.18;5.50;;;;;;;23.25;28.16;101087.50;5039242;28;20056;-83
2023/06/11 02:10:18;;;;;;;8.45;5.78;;;;;;;23.22;28.19;101087.94;5039631;28;20162;-83
2023/06/11 02:12:47;;;;;;;6.00;5.22;;;;;;;23.19;28.16;101089.19;5042217;28;20067;-83
2023/06/11 02:15:15;;;;;;;5.85;5.25;;;;;;;23.18;27.99;101081.88;5036801;28;20051;-82
2023/06/11 02:17:43;;;;;;;5.47;4.75;;;;;;;23.15;28.02;101082.31;5038723;28;20065;-83
2023/06/11 02:20:15;;;;;;;7.15;5.13;;;;;;;23.17;28.12;101084.88;5039539;28;20574;-84
2023/06/11 02:22:43;;;;;;;6.38;5.13;;;;;;;23.10;28.12;101086.78;5040217;28;20041;-83
2023/06/11 02:25:11;;;;;;;5.80;5.10;;;;;;;23.11;28.14;101091.28;5056234;28;20268;-83
2023/06/11 02:27:40;;;;;;;6.30;5.25;;;;;;;23.10;28.32;101086.78;5035683;28;20048;-83
2023/06/11 02:30:09;;;;;;;6.57;5.10;;;;;;;23.09;28.34;101091.50;5034848;28;20451;-83
2023/06/11 02:32:37;;;;;;;6.18;5.20;;;;;;;23.07;28.20;101084.44;5050111;28;20037;-83
2023/06/11 02:35:06;;;;;;;5.78;4.97;;;;;;;23.07;28.47;101090.88;5049977;28;20122;-82
2023/06/11 02:37:36;;;;;;;6.38;5.15;;;;;;;23.09;28.09;101087.84;5039422;28;20488;-82
2023/06/11 02:40:05;;;;;;;5.97;4.90;;;;;;;23.07;28.50;101095.59;5034340;28;20612;-85
2023/06/11 02:42:33;;;;;;;5.55;4.95;;;;;;;23.04;28.19;101088.50;5052752;28;20053;-87
2023/06/11 02:45:01;;;;;;;5.70;4.80;;;;;;;23.04;28.22;101091.28;5037822;28;20091;-85
2023/06/11 02:47:30;;;;;;;6.03;5.10;;;;;;;23.02;28.31;101085.91;5037602;28;20099;-85
2023/06/11 02:49:58;;;;;;;5.75;4.93;;;;;;;23.01;28.37;101086.97;5053386;28;20687;-84
2023/06/11 02:52:26;;;;;;;5.60;5.10;;;;;;;23.00;28.49;101090.84;5036341;28;20040;-81
2023/06/11 02:54:56;;;;;;;6.55;5.32;;;;;;;23.00;28.44;101088.03;5039631;28;20072;-82
2023/06/11 02:57:24;;;;;;;5.68;5.07;;;;;;;22.97;28.16;101090.41;5052331;28;20045;-82
2023/06/11 02:59:52;;;;;;;6.28;5.53;;;;;;;22.93;28.39;101089.97;5056494;28;20045;-82
2023/06/11 03:02:20;;;;;;;5.45;4.90;;;;;;;22.94;28.21;101093.63;5037783;28;20044;-81
2023/06/11 03:04:48;;;;;;;6.32;5.25;;;;;;;22.90;28.74;101084.81;5039610;28;20036;-84
2023/06/11 03:07:17;;;;;;;6.03;5.10;;;;;;;22.88;28.52;101092.53;5040846;28;20044;-82
2023/06/11 03:09:45;;;;;;;6.25;4.88;;;;;;;22.86;28.32;101094.66;5040681;28;20041;-81
2023/06/11 03:12:15;;;;;;;6.82;5.47;;;;;;;22.88;28.49;101102.84;5065143;28;20048;-81
2023/06/11 03:14:46;;;;;;;6.00;5.40;;;;;;;22.85;28.68;101106.03;5073732;28;20051;-85
2023/06/11 03:17:21;;;;;;;5.70;5.10;;;;;;;22.83;28.83;101102.63;4999748;28;20534;-85
2023/06/11 03:20:46;;;;;;;6.70;5.03;;;;;;;22.76;29.13;101101.69;5066618;28;20064;-85
2023/06/11 03:23:19;;;;;;;5.88;4.80;;;;;;;22.75;28.81;101102.81;5059742;28;20049;-86
2023/06/11 03:26:05;;;;;;;5.78;4.82;;;;;;;22.73;28.82;101104.94;5039824;28;20049;-86
2023/06/11 03:28:45;;;;;;;6.00;5.40;;;;;;;22.73;28.99;101107.72;5041093;28;20056;-85
2023/06/11 03:31:15;;;;;;;6.10;5.18;;;;;;;22.69;29.10;101111.97;5037816;28;20129;-86
2023/06/11 03:33:50;;;;;;;7.45;5.57;;;;;;;22.67;29.05;101112.22;5041162;28;20576;-86
2023/06/11 03:36:23;;;;;;;8.02;5.65;;;;;;;22.64;29.06;101110.69;5040504;28;20373;-85
2023/06/11 03:39:10;;;;;;;8.95;5.60;;;;;;;22.61;29.04;101111.09;5050492;28;20041;-86
2023/06/11 03:41:40;;;;;;;8.80;5.47;;;;;;;22.59;29.26;101107.66;5057830;28;20405;-85
2023/06/11 03:44:13;;;;;;;10.45;5.30;;;;;;;22.59;29.03;101116.00;5040181;28;20041;-86
2023/06/11 03:46:41;;;;;;;8.45;5.60;;;;;;;22.54;29.13;101107.41;5039237;28;20041;-86
2023/06/11 03:49:15;;;;;;;6.88;4.95;;;;;;;22.51;29.23;101116.16;5039538;28;20521;-85
2023/06/11 03:51:50;;;;;;;6.18;5.57;;;;;;;22.52;29.30;101114.22;5052936;28;20051;-86
2023/06/11 03:54:36;;;;;;;5.80;5.10;;;;;;;22.50;29.46;101117.25;5058688;28;20037;-85
2023/06/11 03:57:10;;;;;;;6.07;5.00;;;;;;;22.49;29.47;101114.66;5047693;28;20057;-85
2023/06/11 03:59:40;;;;;;;5.97;5.38;;;;;;;22.45;29.88;101117.00;5042120;28;20558;-85
2023/06/11 04:02:09;;;;;;;6.88;5.10;;;;;;;22.45;29.75;101128.16;5014815;28;20127;-85
2023/06/11 04:04:39;;;;;;;6.13;5.53;;;;;;;22.43;29.80;101123.84;5041521;28;20067;-86
2023/06/11 04:07:09;;;;;;;6.28;5.30;;;;;;;22.42;29.73;101122.13;5055748;28;20415;-85
2023/06/11 04:09:44;;;;;;;5.97;5.18;;;;;;;22.42;30.04;101125.78;5041596;28;20381;-85
2023/06/11 04:12:19;;;;;;;6.88;5.50;;;;;;;22.42;29.83;101123.00;5040728;28;20041;-85
2023/06/11 04:14:53;;;;;;;6.40;5.20;;;;;;;22.42;30.25;101114.63;5044311;28;20053;-85
2023/06/11 04:17:35;;;;;;;6.00;5.40;;;;;;;22.40;30.27;101113.97;5030621;28;20124;-85
2023/06/11 04:20:13;;;;;;;6.60;5.40;;;;;;;22.42;30.52;101116.56;5053434;28;20045;-86
2023/06/11 04:23:02;;;;;;;6.97;5.80;;;;;;;22.42;30.44;101122.13;5044665;28;20057;-85
2023/06/11 04:25:50;;;;;;;5.50;4.90;;;;;;;22.41;29.92;101124.06;5050153;28;20104;-85
2023/06/11 04:32:34;;;;;;;5.85;4.95;;;;;;;22.43;30.26;101119.13;4979516;28;20057;-84
2023/06/11 04:35:47;;;;;;;6.63;5.10;;;;;;;22.43;30.26;101116.31;4960578;28;20075;-85
2023/06/11 04:38:17;;;;;;;6.15;5.15;;;;;;;22.48;30.37;101124.09;5039057;28;20045;-86
2023/06/11 04:40:48;;;;;;;5.80;5.07;;;;;;;22.52;30.44;101128.16;5035994;28;20041;-85
2023/06/11 04:43:33;;;;;;;6.43;5.30;;;;;;;22.53;30.43;101119.63;5057320;28;20496;-85
2023/06/11 04:46:09;;;;;;;6.95;5.68;;;;;;;22.55;30.45;101123.09;5037075;28;20080;-84
2023/06/11 04:48:40;;;;;;;5.93;5.32;;;;;;;22.56;30.59;101123.94;5037809;28;20448;-86
2023/06/11 04:51:11;;;;;;;6.13;5.18;;;;;;;22.57;30.54;101123.75;5025964;28;20119;-86
2023/06/11 04:53:43;;;;;;;6.47;5.65;;;;;;;22.57;30.70;101134.03;5038726;28;21007;-84
2023/06/11 04:56:13;;;;;;;6.80;5.60;;;;;;;22.62;30.34;101131.47;5039938;28;20033;-85
2023/06/11 04:58:41;;;;;;;6.30;5.10;;;;;;;22.63;30.48;101128.50;5047082;28;20547;-86
2023/06/11 05:01:12;;;;;;;6.13;5.53;;;;;;;22.64;30.85;101130.22;5032317;28;20045;-85
2023/06/11 05:03:41;;;;;;;6.07;5.32;;;;;;;22.68;30.74;101124.19;5033756;28;20064;-87
2023/06/11 05:06:13;;;;;;;6.25;5.43;;;;;;;22.68;30.39;101124.19;5047434;28;20443;-86
2023/06/11 05:08:43;;;;;;;6.38;5.45;;;;;;;22.77;30.88;101125.75;5049879;28;20776;-86
2023/06/11 05:11:12;;;;;;;6.45;5.75;;;;;;;22.89;30.59;101124.97;5030387;28;20132;-86
2023/06/11 05:13:40;;;;;;;6.78;5.47;;;;;;;23.05;30.73;101128.44;5051261;28;20021;-85
2023/06/11 05:16:09;;;;;;;6.65;5.28;;;;;;;23.24;30.73;101134.13;5052293;28;20063;-85
2023/06/11 05:18:38;;;;;;;6.25;5.35;;;;;;;23.45;30.48;101129.41;5035843;28;20048;-86
2023/06/11 05:21:09;;;;;;;5.70;5.10;;;;;;;23.71;30.27;101133.09;5029810;28;20091;-89
2023/06/11 05:23:39;;;;;;;7.65;5.30;;;;;;;23.94;30.05;101135.50;5028756;28;20040;-86
2023/06/11 05:26:12;;;;;;;6.00;5.07;;;;;;;24.20;30.20;101140.19;5034729;28;20408;-86
2023/06/11 05:28:46;;;;;;;5.95;5.35;;;;;;;24.47;29.78;101139.09;5033203;28;20041;-84
2023/06/11 05:31:15;;;;;;;5.75;5.15;;;;;;;24.75;29.55;101149.09;5054728;28;20044;-85
2023/06/11 05:33:46;;;;;;;6.13;5.53;;;;;;;24.99;29.20;101142.78;5060993;28;20063;-80
2023/06/11 05:36:16;;;;;;;5.75;5.07;;;;;;;25.27;28.79;101151.69;5009830;28;20053;-78
2023/06/11 05:38:44;;;;;;;5.88;4.90;;;;;;;25.47;28.51;101153.53;5029811;28;20045;-80
2023/06/11 05:41:13;;;;;;;5.70;5.05;;;;;;;25.69;27.84;101146.50;5034717;28;20064;-79
2023/06/11 05:43:41;;;;;;;5.38;4.70;;;;;;;25.89;27.95;101146.31;5032350;28;20072;-79
2023/06/11 05:46:09;;;;;;;5.90;4.85;;;;;;;26.06;27.61;101146.59;5035519;28;20045;-78
2023/06/11 05:48:37;;;;;;;6.07;5.47;;;;;;;26.20;27.41;101157.50;5029054;28;20507;-78
2023/06/11 05:51:05;;;;;;;5.45;4.60;;;;;;;26.32;27.05;101154.78;5045240;28;20049;-79
2023/06/11 05:53:34;;;;;;;6.13;5.50;;;;;;;26.43;26.94;101151.22;5041224;28;20620;-78
2023/06/11 05:56:04;;;;;;;5.70;5.10;;;;;;;26.49;27.03;101160.66;5035797;28;20063;-79
2023/06/11 05:58:35;;;;;;;5.72;5.07;;;;;;;26.54;26.83;101152.41;5027715;28;20055;-78
2023/06/11 06:01:06;;;;;;;5.60;4.72;;;;;;;26.59;27.03;101156.22;5036921;28;20047;-79
2023/06/11 06:03:38;;;;;;;5.47;4.80;;;;;;;26.60;26.56;101152.31;5033210;28;20397;-78
2023/06/11 06:06:08;;;;;;;5.22;4.70;;;;;;;26.62;26.41;101153.00;5046283;28;20053;-78
2023/06/11 06:08:38;;;;;;;5.57;4.88;;;;;;;26.67;26.70;101155.09;5031090;28;20041;-78
2023/06/11 06:11:07;;;;;;;5.82;5.05;;;;;;;26.67;26.59;101160.69;5027515;28;20053;-78
2023/06/11 06:13:35;;;;;;;5.25;4.55;;;;;;;26.69;26.56;101162.19;5027987;28;20052;-78
2023/06/11 06:16:05;;;;;;;5.70;5.10;;;;;;;26.72;26.46;101163.66;5028729;28;20405;-77
2023/06/11 06:18:33;;;;;;;6.55;5.03;;;;;;;26.73;26.39;101160.63;5048887;28;20128;-77
2023/06/11 06:21:01;;;;;;;5.78;4.90;;;;;;;26.75;26.18;101163.19;5027906;28;20048;-78
2023/06/11 06:23:29;;;;;;;6.50;4.95;;;;;;;26.75;26.30;101168.81;5029609;28;20072;-77
2023/06/11 06:26:09;;;;;;;5.93;4.90;;;;;;;26.76;26.23;101176.16;5024079;28;20141;-77
2023/06/11 06:28:39;;;;;;;5.80;5.20;;;;;;;26.74;25.87;101167.94;5023777;28;20403;-77
2023/06/11 06:31:12;;;;;;;5.82;4.63;;;;;;;26.75;26.00;101171.63;5026657;28;20083;-78
2023/06/11 06:33:40;;;;;;;5.55;5.05;;;;;;;26.73;26.09;101168.19;5044496;28;20137;-77
2023/06/11 06:36:08;;;;;;;5.72;4.95;;;;;;;26.74;25.84;101172.69;5030179;28;20129;-77
2023/06/11 06:38:37;;;;;;;6.10;5.00;;;;;;;26.73;25.90;101183.06;5027953;28;20132;-77
2023/06/11 06:41:06;;;;;;;6.95;4.82;;;;;;;26.73;26.09;101182.22;5027998;28;20057;-77
2023/06/11 06:43:36;;;;;;;6.20;5.35;;;;;;;26.75;25.76;101178.09;5027682;28;20041;-77
2023/06/11 06:46:11;;;;;;;5.57;4.65;;;;;;;26.71;26.13;101167.53;5024077;28;20413;-77
2023/06/11 06:48:40;;;;;;;5.78;5.20;;;;;;;26.72;25.81;101167.31;5029476;28;20099;-77
2023/06/11 06:51:08;;;;;;;5.72;5.10;;;;;;;26.73;25.68;101179.41;5027709;28;20049;-77
2023/06/11 06:53:39;;;;;;;6.45;4.63;;;;;;;26.74;25.87;101178.31;5029314;28;20095;-78
2023/06/11 06:56:09;;;;;;;5.22;4.72;;;;;;;26.80;25.73;101179.31;5045350;28;20056;-77
2023/06/11 06:58:38;;;;;;;5.60;4.85;;;;;;;26.84;25.92;101175.84;5030464;28;20042;-78
2023/06/11 07:01:07;;;;;;;5.82;4.90;;;;;;;26.86;25.66;101176.47;5048787;28;20969;-78
2023/06/11 07:03:36;;;;;;;6.70;4.80;;;;;;;26.91;26.09;101176.59;5027125;28;20665;-83
2023/06/11 07:06:04;;;;;;;7.10;4.45;;;;;;;26.95;25.86;101177.00;5027765;28;20139;-77
2023/06/11 07:08:33;;;;;;;5.10;4.30;;;;;;;27.02;25.89;101178.63;5028413;28;20060;-78
2023/06/11 07:11:01;;;;;;;5.07;4.38;;;;;;;27.07;25.66;101187.19;5026485;28;20111;-86
2023/06/11 07:13:40;;;;;;;4.63;4.05;;;;;;;27.16;25.73;101181.28;5027445;28;20045;-78
2023/06/11 07:16:10;;;;;;;4.82;4.28;;;;;;;27.18;25.50;101179.09;5024887;28;20389;-79
2023/06/11 07:18:41;;;;;;;;;;;;;;;26.90;25.57;101191.72;5045653;28;20057;-78
2023/06/11 07:21:10;;;;;;;5.03;3.83;;;;;;;27.17;25.20;101185.81;5044812;28;19931;-81
2023/06/11 07:23:38;;;;;;;5.05;4.00;;;;;;;27.21;25.34;101196.34;5028736;28;20033;-78
2023/06/11 07:26:06;;;;;;;5.35;4.35;;;;;;;27.21;24.92;101196.34;5025444;28;20056;-77
2023/06/11 07:28:35;;;;;;;5.18;4.50;;;;;;;27.23;24.93;101196.09;5042820;28;20140;-78
2023/06/11 07:31:05;;;;;;;6.80;4.18;;;;;;;27.27;24.97;101195.41;5026289;28;20067;-77
2023/06/11 07:33:33;;;;;;;6.35;4.30;;;;;;;27.24;25.08;101193.06;5029414;28;20557;-77
2023/06/11 07:36:01;;;;;;;6.38;4.20;;;;;;;27.27;25.05;101188.94;5034114;28;20056;-77
2023/06/11 07:38:30;;;;;;;5.88;4.40;;;;;;;27.27;24.91;101191.75;5031714;28;20056;-78
2023/06/11 07:41:01;;;;;;;4.65;4.15;;;;;;;27.30;24.97;101194.06;5031397;28;20056;-77
2023/06/11 07:43:30;;;;;;;6.20;4.53;;;;;;;27.31;24.87;101195.78;5033267;28;20041;-79
2023/06/11 07:45:58;;;;;;;4.53;3.97;;;;;;;27.35;25.27;101195.06;5031356;28;20037;-77
2023/06/11 07:48:27;;;;;;;4.95;4.30;;;;;;;27.42;24.94;101197.78;5033411;28;20045;-77
2023/06/11 07:50:55;;;;;;;4.80;4.30;;;;;;;27.44;24.87;101195.59;5029839;28;20052;-77
2023/06/11 07:53:25;;;;;;;5.13;4.35;;;;;;;27.45;24.43;101198.16;5027925;28;20136;-79
2023/06/11 07:55:56;;;;;;;5.65;4.32;;;;;;;27.49;24.78;101199.41;5025986;28;20076;-79
2023/06/11 07:58:25;;;;;;;4.88;4.35;;;;;;;27.47;24.64;101200.72;5045382;22;20422;-78
2023/06/11 08:00:53;;;;;;;4.60;4.10;;;;;;;27.51;24.78;101201.97;5028580;28;20077;-77
2023/06/11 08:03:21;;;;;;;6.00;4.13;;;;;;;27.52;24.84;101200.91;5037123;28;20597;-78
2023/06/11 08:05:50;;;;;;;5.28;4.10;;;;;;;27.54;24.62;101195.88;5034183;28;20128;-78
2023/06/11 08:08:18;;;;;;;5.43;3.83;;;;;;;27.54;24.72;101198.69;5035786;28;20041;-80
2023/06/11 08:10:50;;;;;;;5.00;4.30;;;;;;;27.56;24.44;101201.25;5019908;28;20111;-77
2023/06/11 08:13:21;;;;;;;5.20;4.35;;;;;;;27.57;24.49;101206.66;5036081;28;20439;-81
2023/06/11 08:15:49;;;;;;;5.53;3.88;;;;;;;27.61;24.46;101193.84;5034135;28;20471;-81
2023/06/11 08:18:17;;;;;;;5.05;4.30;;;;;;;27.65;24.70;101199.81;5018769;28;20080;-80
2023/06/11 08:20:47;;;;;;;6.00;4.13;;;;;;;27.68;24.39;101202.16;5011049;28;20049;-80
2023/06/11 08:23:16;;;;;;;5.07;3.85;;;;;;;27.75;24.32;101202.94;5013878;28;20107;-80
2023/06/11 08:25:44;;;;;;;5.78;4.25;;;;;;;27.79;24.70;101199.41;5017835;28;20452;-80
2023/06/11 08:28:12;;;;;;;4.97;4.28;;;;;;;27.84;24.67;101201.50;5012151;28;20034;-80
2023/06/11 08:30:40;;;;;;;5.00;4.47;;;;;;;27.91;24.55;101192.97;5027106;28;20048;-78
2023/06/11 08:33:08;;;;;;;4.88;3.90;;;;;;;27.96;24.69;101191.13;5023587;28;20095;-78
2023/06/11 08:35:36;;;;;;;5.53;4.20;;;;;;;28.03;24.22;101193.81;5025609;28;20114;-80
2023/06/11 08:38:04;;;;;;;4.80;4.20;;;;;;;28.10;24.32;101191.78;5024456;28;20050;-81
2023/06/11 08:40:41;;;;;;;5.00;4.38;;;;;;;28.21;23.96;101191.81;5030658;28;20049;-81
2023/06/11 08:43:09;;;;;;;5.30;4.45;;;;;;;28.26;24.52;101193.91;5013735;28;20053;-80
2023/06/11 08:45:37;;;;;;;4.80;4.10;;;;;;;28.33;24.04;101189.00;5008684;28;20154;-81
2023/06/11 08:48:06;;;;;;;5.38;3.92;;;;;;;28.40;24.11;101194.50;5028326;28;20129;-81
2023/06/11 08:50:35;;;;;;;4.45;3.88;;;;;;;28.48;24.14;101199.78;5027889;28;20053;-81
2023/06/11 08:53:04;;;;;;;3.90;3.50;;;;;;;28.56;24.12;101202.22;5011077;28;20480;-80
2023/06/11 08:55:34;;;;;;;4.65;3.83;;;;;;;28.63;23.58;101183.22;5029532;28;20045;-80
2023/06/11 08:58:02;;;;;;;4.30;3.90;;;;;;;28.68;23.67;101197.44;5014197;28;20042;-79
2023/06/11 09:00:30;;;;;;;4.38;3.97;;;;;;;28.77;23.99;101193.16;5025092;28;20052;-79
2023/06/11 09:02:58;;;;;;;4.80;4.07;;;;;;;28.84;23.66;101191.09;5030395;28;20041;-79
2023/06/11 09:05:26;;;;;;;5.03;4.10;;;;;;;28.91;23.37;101193.75;5012735;28;20048;-79
2023/06/11 09:07:55;;;;;;;4.40;3.63;;;;;;;28.96;23.38;101194.72;5028473;28;20045;-79
2023/06/11 09:10:23;;;;;;;4.75;3.90;;;;;;;29.02;22.61;101186.38;5011695;28;20053;-79
2023/06/11 09:12:54;;;;;;;4.50;3.78;;;;;;;29.09;22.71;101185.16;5009331;28;20070;-79
2023/06/11 09:15:25;;;;;;;5.00;3.55;;;;;;;29.13;22.83;101191.13;5011493;28;20038;-79
2023/06/11 09:17:53;;;;;;;4.47;3.65;;;;;;;29.17;22.90;101187.56;5013221;28;20049;-79
2023/06/11 09:20:22;;;;;;;4.30;3.70;;;;;;;29.23;22.66;101192.22;5013128;28;20516;-79
2023/06/11 09:22:51;;;;;;;4.47;3.60;;;;;;;29.28;22.73;101197.97;5009497;28;20047;-79
2023/06/11 09:25:19;;;;;;;4.50;3.90;;;;;;;29.34;22.70;101188.50;5014053;28;20056;-79
2023/06/11 09:27:48;;;;;;;4.70;3.92;;;;;;;29.41;22.46;101185.53;5014605;28;20253;-80
2023/06/11 09:30:19;;;;;;;4.63;3.42;;;;;;;29.50;22.50;101191.63;5009095;28;20049;-79
2023/06/11 09:32:49;;;;;;;4.40;3.50;;;;;;;29.52;22.66;101184.63;5031569;28;20046;-80
2023/06/11 09:35:21;;;;;;;4.45;3.80;;;;;;;29.58;22.53;101175.16;5011848;28;20056;-81
2023/06/11 09:37:51;;;;;;;4.20;3.55;;;;;;;29.64;22.50;101187.38;5016416;28;20041;-80
2023/06/11 09:40:20;;;;;;;4.70;3.38;;;;;;;29.69;22.51;101188.31;5015082;28;20048;-81
2023/06/11 09:42:49;;;;;;;5.78;3.50;;;;;;;29.77;22.28;101183.41;5032780;28;20038;-80
2023/06/11 09:45:20;;;;;;;4.40;3.70;;;;;;;29.84;21.42;101186.94;5029913;28;20053;-81
2023/06/11 09:47:51;;;;;;;4.25;3.70;;;;;;;29.86;22.03;101190.34;5031609;28;20047;-81
2023/06/11 09:50:21;;;;;;;4.68;4.05;;;;;;;29.89;21.89;101182.25;5014805;28;20168;-80
2023/06/11 09:52:52;;;;;;;4.60;3.80;;;;;;;29.96;21.41;101173.59;5012292;28;20045;-80
2023/06/11 09:55:25;;;;;;;4.43;3.70;;;;;;;29.99;21.51;101193.72;5028680;28;20052;-82
2023/06/11 09:57:54;;;;;;;4.35;3.95;;;;;;;29.99;21.09;101185.25;5010929;28;20042;-81
2023/06/11 10:00:24;;;;;;;4.68;3.90;;;;;;;30.02;21.13;101178.22;5031057;28;20176;-81
2023/06/11 10:02:53;;;;;;;5.38;4.20;;;;;;;30.02;20.79;101181.91;5028130;28;20076;-81
2023/06/11 10:05:22;;;;;;;4.57;3.75;;;;;;;30.01;20.76;101191.47;5027389;28;20110;-80
2023/06/11 10:07:56;;;;;;;5.47;3.80;;;;;;;30.05;20.50;101197.47;5018647;28;20048;-81
2023/06/11 10:10:26;;;;;;;4.60;3.78;;;;;;;30.03;20.52;101194.91;5014931;28;20057;-80
2023/06/11 10:12:55;;;;;;;4.18;3.70;;;;;;;30.02;20.73;101179.06;5033584;28;20504;-80
2023/06/11 10:15:25;;;;;;;5.88;4.20;;;;;;;30.05;20.73;101189.88;5021915;28;20067;-79
2023/06/11 10:17:54;;;;;;;4.57;4.05;;;;;;;30.03;20.26;101199.69;5031058;28;20050;-80
2023/06/11 10:20:27;;;;;;;4.90;4.40;;;;;;;30.05;20.33;101189.88;5028345;28;20057;-79
2023/06/11 10:23:06;;;;;;;4.47;3.97;;;;;;;30.05;20.66;101189.00;5043938;28;20037;-80
2023/06/11 10:25:37;;;;;;;5.18;4.50;;;;;;;30.01;20.50;101187.78;5010791;28;20049;-81
2023/06/11 10:28:06;;;;;;;4.72;4.05;;;;;;;30.04;20.76;101188.16;5010815;28;20057;-79
2023/06/11 10:30:36;;;;;;;5.13;3.75;;;;;;;30.08;20.49;101194.16;5005238;28;20050;-79
2023/06/11 10:33:04;;;;;;;5.30;4.45;;;;;;;30.05;20.12;101178.56;5027942;28;20076;-80
2023/06/11 10:35:33;;;;;;;4.70;4.00;;;;;;;30.07;20.13;101175.50;5029319;28;20060;-78
2023/06/11 10:38:05;;;;;;;5.07;4.13;;;;;;;30.10;20.65;101178.66;5010076;28;20505;-81
2023/06/11 10:40:35;;;;;;;4.95;4.45;;;;;;;30.09;20.37;101185.41;5007353;28;20049;-81
2023/06/11 10:43:05;;;;;;;5.07;4.40;;;;;;;30.10;20.86;101178.66;5013162;28;20037;-80
2023/06/11 10:45:37;;;;;;;4.82;3.80;;;;;;;30.16;20.79;101161.81;5028382;28;20491;-79
2023/06/11 10:48:05;;;;;;;4.70;4.10;;;;;;;30.11;20.61;101166.25;5032997;28;20401;-79
2023/06/11 10:50:35;;;;;;;5.10;4.03;;;;;;;30.17;20.41;101174.81;5011139;28;20041;-80
2023/06/11 10:53:09;;;;;;;4.32;3.85;;;;;;;30.20;20.43;101172.31;5012149;28;20057;-80
2023/06/11 10:55:42;;;;;;;4.53;3.70;;;;;;;30.24;19.58;101175.53;5010037;28;20052;-80
2023/06/11 10:58:19;;;;;;;5.28;4.03;;;;;;;30.25;19.50;101180.06;5010918;28;20050;-81
2023/06/11 11:00:52;;;;;;;4.10;3.70;;;;;;;30.32;18.63;101172.25;5012808;28;20103;-80
2023/06/11 11:03:23;;;;;;;5.88;4.20;;;;;;;30.34;18.82;101182.16;5018986;28;20041;-80
2023/06/11 11:05:52;;;;;;;5.30;4.00;;;;;;;30.37;19.11;101164.72;5013608;28;20053;-81
2023/06/11 11:08:22;;;;;;;4.68;3.75;;;;;;;30.44;19.08;101173.84;5028809;28;20104;-82
2023/06/11 11:10:56;;;;;;;5.85;4.30;;;;;;;30.56;18.50;101170.94;5014937;28;20050;-81
2023/06/11 11:13:24;;;;;;;;;;;;;;;30.27;19.56;101169.34;5016129;28;20049;-81
2023/06/11 11:15:54;;;;;;;5.38;3.83;;;;;;;30.63;18.84;101167.91;5013651;28;19979;-81
2023/06/11 11:18:22;;;;;;;5.30;3.83;;;;;;;30.70;18.37;101162.94;5011755;28;20521;-80
2023/06/11 11:20:53;;;;;;;4.80;4.10;;;;;;;30.80;18.20;101165.94;5012403;28;20041;-80
2023/06/11 11:23:21;;;;;;;4.50;3.70;;;;;;;30.82;18.10;101158.91;5017295;28;20053;-82
2023/06/11 11:25:51;;;;;;;5.13;3.70;;;;;;;30.93;18.42;101159.03;5017149;28;20042;-82
2023/06/11 11:28:20;;;;;;;5.22;3.90;;;;;;;30.97;18.15;101160.22;5015913;28;20063;-79
2023/06/11 11:30:50;;;;;;;5.03;4.03;;;;;;;31.01;17.23;101169.88;5011809;28;20148;-80
2023/06/11 11:33:20;;;;;;;5.03;3.90;;;;;;;31.08;17.34;101182.69;5017962;28;20400;-78
2023/06/11 11:35:50;;;;;;;5.35;3.85;;;;;;;31.09;16.70;101170.25;5015656;28;20052;-79
2023/06/11 11:38:18;;;;;;;4.70;3.92;;;;;;;31.09;16.61;101173.09;5017766;28;20800;-79
2023/06/11 11:40:46;;;;;;;4.88;4.38;;;;;;;31.08;16.65;101160.06;5020735;28;20069;-79
2023/06/11 11:43:14;;;;;;;5.93;4.32;;;;;;;31.10;16.82;101156.97;5020600;28;20041;-79
2023/06/11 11:45:47;;;;;;;5.07;4.25;;;;;;;31.13;17.19;101148.00;5036544;28;20132;-80
2023/06/11 11:48:16;;;;;;;4.97;4.05;;;;;;;31.11;17.38;101165.22;5019694;28;20118;-78